Terminal Aerodrome Forecast
Issued by NWS

Home | Current Version | Previous Version | Text Only | Print | Product List | Glossary On
Versions: 1 2 3 4 5 6 7 8 9 10 11 12 13 14 15 16 17
000
FTUS44 KLIX 080520
TAFMCB
TAF
KMCB 080520Z 0806/0906 00000KT P6SM FEW025 SCT035
     FM080900 00000KT 3SM BR OVC007
     FM081300 19005KT P6SM SCT025=

USA.gov is the U.S. government's official web portal to all federal, state and local government web resources and services.